sensor_id;sensor_type;location;lat;lon;timestamp;temperature;humidity
57552;DHT22;43379;48.160;14.036;2022-07-29T00:01:47;23.40;91.70
57552;DHT22;43379;48.160;14.036;2022-07-29T00:04:12;23.40;91.50
57552;DHT22;43379;48.160;14.036;2022-07-29T00:06:38;23.30;91.60
57552;DHT22;43379;48.160;14.036;2022-07-29T00:09:04;23.30;91.80
57552;DHT22;43379;48.160;14.036;2022-07-29T00:11:30;23.20;91.60
57552;DHT22;43379;48.160;14.036;2022-07-29T00:13:56;23.20;91.60
57552;DHT22;43379;48.160;14.036;2022-07-29T00:16:21;23.10;91.80
57552;DHT22;43379;48.160;14.036;2022-07-29T00:18:48;23.00;92.30
57552;DHT22;43379;48.160;14.036;2022-07-29T00:21:14;22.90;92.40
57552;DHT22;43379;48.160;14.036;2022-07-29T00:23:39;22.90;92.70
57552;DHT22;43379;48.160;14.036;2022-07-29T00:26:05;23.00;92.60
57552;DHT22;43379;48.160;14.036;2022-07-29T00:28:31;23.00;92.70
57552;DHT22;43379;48.160;14.036;2022-07-29T00:30:56;23.00;92.70
57552;DHT22;43379;48.160;14.036;2022-07-29T00:33:22;23.00;92.50
57552;DHT22;43379;48.160;14.036;2022-07-29T00:35:49;23.00;92.60
57552;DHT22;43379;48.160;14.036;2022-07-29T00:38:19;23.00;92.40
57552;DHT22;43379;48.160;14.036;2022-07-29T00:40:46;22.90;92.60
57552;DHT22;43379;48.160;14.036;2022-07-29T00:43:13;22.90;92.90
57552;DHT22;43379;48.160;14.036;2022-07-29T00:45:40;22.90;92.80
57552;DHT22;43379;48.160;14.036;2022-07-29T00:48:06;22.90;92.80
57552;DHT22;43379;48.160;14.036;2022-07-29T00:50:34;22.80;92.90
57552;DHT22;43379;48.160;14.036;2022-07-29T00:53:00;22.80;93.30
57552;DHT22;43379;48.160;14.036;2022-07-29T00:55:27;22.80;93.20
57552;DHT22;43379;48.160;14.036;2022-07-29T00:57:53;22.70;93.10
57552;DHT22;43379;48.160;14.036;2022-07-29T01:00:24;22.70;93.10
57552;DHT22;43379;48.160;14.036;2022-07-29T01:02:51;22.70;93.30
57552;DHT22;43379;48.160;14.036;2022-07-29T01:05:19;22.60;93.40
57552;DHT22;43379;48.160;14.036;2022-07-29T01:07:46;22.60;93.60
57552;DHT22;43379;48.160;14.036;2022-07-29T01:10:14;22.60;93.20
57552;DHT22;43379;48.160;14.036;2022-07-29T01:12:43;22.60;93.50
57552;DHT22;43379;48.160;14.036;2022-07-29T01:15:10;22.50;93.50
57552;DHT22;43379;48.160;14.036;2022-07-29T01:17:43;22.60;93.50
57552;DHT22;43379;48.160;14.036;2022-07-29T01:23:48;22.60;93.20
57552;DHT22;43379;48.160;14.036;2022-07-29T01:29:38;22.60;93.20
57552;DHT22;43379;48.160;14.036;2022-07-29T01:32:22;22.60;93.20
57552;DHT22;43379;48.160;14.036;2022-07-29T01:35:25;22.70;93.20
57552;DHT22;43379;48.160;14.036;2022-07-29T01:38:05;22.60;93.10
57552;DHT22;43379;48.160;14.036;2022-07-29T01:40:45;22.70;93.10
57552;DHT22;43379;48.160;14.036;2022-07-29T01:43:34;22.60;93.00
57552;DHT22;43379;48.160;14.036;2022-07-29T01:46:05;22.60;93.30
57552;DHT22;43379;48.160;14.036;2022-07-29T01:48:45;22.60;93.50
57552;DHT22;43379;48.160;14.036;2022-07-29T01:51:25;22.50;93.50
57552;DHT22;43379;48.160;14.036;2022-07-29T01:54:24;22.50;93.80
57552;DHT22;43379;48.160;14.036;2022-07-29T01:56:54;22.50;94.00
57552;DHT22;43379;48.160;14.036;2022-07-29T01:59:21;22.50;93.90
57552;DHT22;43379;48.160;14.036;2022-07-29T02:01:47;22.40;93.90
57552;DHT22;43379;48.160;14.036;2022-07-29T02:04:15;22.40;93.90
57552;DHT22;43379;48.160;14.036;2022-07-29T02:06:42;22.30;94.10
57552;DHT22;43379;48.160;14.036;2022-07-29T02:09:10;22.30;94.10
57552;DHT22;43379;48.160;14.036;2022-07-29T02:11:38;22.40;93.90
57552;DHT22;43379;48.160;14.036;2022-07-29T02:14:04;22.40;94.00
57552;DHT22;43379;48.160;14.036;2022-07-29T02:16:32;22.40;94.00
57552;DHT22;43379;48.160;14.036;2022-07-29T02:19:01;22.40;94.00
57552;DHT22;43379;48.160;14.036;2022-07-29T02:21:27;22.40;94.20
57552;DHT22;43379;48.160;14.036;2022-07-29T02:23:56;22.30;94.10
57552;DHT22;43379;48.160;14.036;2022-07-29T02:26:24;22.30;94.10
57552;DHT22;43379;48.160;14.036;2022-07-29T02:28:54;22.20;94.30
57552;DHT22;43379;48.160;14.036;2022-07-29T02:33:57;22.20;94.40
57552;DHT22;43379;48.160;14.036;2022-07-29T02:36:24;22.20;94.50
57552;DHT22;43379;48.160;14.036;2022-07-29T02:38:51;22.10;94.80
57552;DHT22;43379;48.160;14.036;2022-07-29T02:41:26;22.00;94.90
57552;DHT22;43379;48.160;14.036;2022-07-29T02:43:55;22.10;94.90
57552;DHT22;43379;48.160;14.036;2022-07-29T02:46:27;22.10;95.00
57552;DHT22;43379;48.160;14.036;2022-07-29T02:52:06;22.20;94.80
57552;DHT22;43379;48.160;14.036;2022-07-29T02:54:44;22.20;94.80
57552;DHT22;43379;48.160;14.036;2022-07-29T02:57:19;22.10;94.80
57552;DHT22;43379;48.160;14.036;2022-07-29T02:59:48;22.10;95.00
57552;DHT22;43379;48.160;14.036;2022-07-29T03:02:16;22.10;95.00
57552;DHT22;43379;48.160;14.036;2022-07-29T03:04:43;22.00;95.10
57552;DHT22;43379;48.160;14.036;2022-07-29T03:07:12;22.10;95.00
57552;DHT22;43379;48.160;14.036;2022-07-29T03:09:40;22.10;95.00
57552;DHT22;43379;48.160;14.036;2022-07-29T03:12:07;22.10;94.90
57552;DHT22;43379;48.160;14.036;2022-07-29T03:14:33;22.10;94.90
57552;DHT22;43379;48.160;14.036;2022-07-29T03:17:00;22.10;94.90
57552;DHT22;43379;48.160;14.036;2022-07-29T03:19:27;22.10;94.70
57552;DHT22;43379;48.160;14.036;2022-07-29T03:21:54;22.10;95.00
57552;DHT22;43379;48.160;14.036;2022-07-29T03:24:25;22.10;94.90
57552;DHT22;43379;48.160;14.036;2022-07-29T03:26:51;22.10;95.00
57552;DHT22;43379;48.160;14.036;2022-07-29T03:29:17;22.10;95.20
57552;DHT22;43379;48.160;14.036;2022-07-29T03:31:42;22.10;95.30
57552;DHT22;43379;48.160;14.036;2022-07-29T03:34:08;22.00;95.30
57552;DHT22;43379;48.160;14.036;2022-07-29T03:36:34;22.10;95.50
57552;DHT22;43379;48.160;14.036;2022-07-29T03:39:00;22.10;95.30
57552;DHT22;43379;48.160;14.036;2022-07-29T03:41:27;22.20;95.30
57552;DHT22;43379;48.160;14.036;2022-07-29T03:43:54;22.20;95.10
57552;DHT22;43379;48.160;14.036;2022-07-29T03:46:22;22.20;95.20
57552;DHT22;43379;48.160;14.036;2022-07-29T03:48:52;22.20;95.60
57552;DHT22;43379;48.160;14.036;2022-07-29T03:51:18;22.30;95.10
57552;DHT22;43379;48.160;14.036;2022-07-29T03:53:44;22.30;95.10
57552;DHT22;43379;48.160;14.036;2022-07-29T03:56:10;22.30;95.20
57552;DHT22;43379;48.160;14.036;2022-07-29T03:58:41;22.30;95.20
57552;DHT22;43379;48.160;14.036;2022-07-29T04:01:07;22.30;95.10
57552;DHT22;43379;48.160;14.036;2022-07-29T04:03:34;22.30;95.30
57552;DHT22;43379;48.160;14.036;2022-07-29T04:06:06;22.30;95.50
57552;DHT22;43379;48.160;14.036;2022-07-29T04:08:33;22.30;95.70
57552;DHT22;43379;48.160;14.036;2022-07-29T04:11:00;22.40;95.60
57552;DHT22;43379;48.160;14.036;2022-07-29T04:13:26;22.40;95.50
57552;DHT22;43379;48.160;14.036;2022-07-29T04:15:52;22.40;95.50
57552;DHT22;43379;48.160;14.036;2022-07-29T04:18:18;22.40;95.80
57552;DHT22;43379;48.160;14.036;2022-07-29T04:20:44;22.30;95.70
57552;DHT22;43379;48.160;14.036;2022-07-29T04:23:09;22.30;95.70
57552;DHT22;43379;48.160;14.036;2022-07-29T04:25:39;22.40;95.70
57552;DHT22;43379;48.160;14.036;2022-07-29T04:28:05;22.40;95.90
57552;DHT22;43379;48.160;14.036;2022-07-29T04:30:32;22.30;96.30
57552;DHT22;43379;48.160;14.036;2022-07-29T04:32:59;22.30;96.70
57552;DHT22;43379;48.160;14.036;2022-07-29T04:35:26;22.30;96.40
57552;DHT22;43379;48.160;14.036;2022-07-29T04:37:52;22.40;96.40
57552;DHT22;43379;48.160;14.036;2022-07-29T04:40:18;22.30;96.40
57552;DHT22;43379;48.160;14.036;2022-07-29T04:42:44;22.30;96.40
57552;DHT22;43379;48.160;14.036;2022-07-29T04:45:10;22.30;96.50
57552;DHT22;43379;48.160;14.036;2022-07-29T04:47:35;22.30;96.50
57552;DHT22;43379;48.160;14.036;2022-07-29T04:50:01;22.30;96.70
57552;DHT22;43379;48.160;14.036;2022-07-29T04:52:27;22.30;96.70
57552;DHT22;43379;48.160;14.036;2022-07-29T04:54:53;22.40;96.90
57552;DHT22;43379;48.160;14.036;2022-07-29T04:57:18;22.50;96.80
57552;DHT22;43379;48.160;14.036;2022-07-29T04:59:44;22.40;96.80
57552;DHT22;43379;48.160;14.036;2022-07-29T05:02:10;22.40;96.90
57552;DHT22;43379;48.160;14.036;2022-07-29T05:04:35;22.40;97.10
57552;DHT22;43379;48.160;14.036;2022-07-29T05:07:01;22.40;97.10
57552;DHT22;43379;48.160;14.036;2022-07-29T05:09:27;22.50;96.90
57552;DHT22;43379;48.160;14.036;2022-07-29T05:11:53;22.50;96.80
57552;DHT22;43379;48.160;14.036;2022-07-29T05:14:18;22.60;96.80
57552;DHT22;43379;48.160;14.036;2022-07-29T05:16:44;22.60;96.90
57552;DHT22;43379;48.160;14.036;2022-07-29T05:19:10;22.60;96.70
57552;DHT22;43379;48.160;14.036;2022-07-29T05:21:35;22.70;96.50
57552;DHT22;43379;48.160;14.036;2022-07-29T05:24:01;22.70;96.60
57552;DHT22;43379;48.160;14.036;2022-07-29T05:26:27;22.70;96.40
57552;DHT22;43379;48.160;14.036;2022-07-29T05:28:52;22.80;96.40
57552;DHT22;43379;48.160;14.036;2022-07-29T05:31:19;22.90;96.30
57552;DHT22;43379;48.160;14.036;2022-07-29T05:33:45;22.90;96.10
57552;DHT22;43379;48.160;14.036;2022-07-29T05:36:11;22.90;96.10
57552;DHT22;43379;48.160;14.036;2022-07-29T05:38:37;22.90;96.10
57552;DHT22;43379;48.160;14.036;2022-07-29T05:41:03;22.80;96.10
57552;DHT22;43379;48.160;14.036;2022-07-29T05:43:29;22.80;96.30
57552;DHT22;43379;48.160;14.036;2022-07-29T05:45:55;22.80;96.10
57552;DHT22;43379;48.160;14.036;2022-07-29T05:48:21;22.80;96.30
57552;DHT22;43379;48.160;14.036;2022-07-29T05:50:47;22.80;96.10
57552;DHT22;43379;48.160;14.036;2022-07-29T05:53:12;22.90;96.30
57552;DHT22;43379;48.160;14.036;2022-07-29T05:55:38;22.90;96.20
57552;DHT22;43379;48.160;14.036;2022-07-29T05:58:03;23.00;96.20
57552;DHT22;43379;48.160;14.036;2022-07-29T06:00:29;23.00;95.80
57552;DHT22;43379;48.160;14.036;2022-07-29T06:02:55;22.90;95.60
57552;DHT22;43379;48.160;14.036;2022-07-29T06:05:22;22.90;95.80
57552;DHT22;43379;48.160;14.036;2022-07-29T06:07:48;23.00;95.50
57552;DHT22;43379;48.160;14.036;2022-07-29T06:10:14;23.00;95.30
57552;DHT22;43379;48.160;14.036;2022-07-29T06:12:40;23.00;95.50
57552;DHT22;43379;48.160;14.036;2022-07-29T06:15:06;23.10;95.40
57552;DHT22;43379;48.160;14.036;2022-07-29T06:17:32;23.20;95.50
57552;DHT22;43379;48.160;14.036;2022-07-29T06:19:58;23.30;95.50
57552;DHT22;43379;48.160;14.036;2022-07-29T06:22:23;23.30;94.90
57552;DHT22;43379;48.160;14.036;2022-07-29T06:24:49;23.50;94.80
57552;DHT22;43379;48.160;14.036;2022-07-29T06:27:15;23.50;95.00
57552;DHT22;43379;48.160;14.036;2022-07-29T06:29:41;23.60;93.90
57552;DHT22;43379;48.160;14.036;2022-07-29T06:32:07;23.60;93.70
57552;DHT22;43379;48.160;14.036;2022-07-29T06:34:35;23.60;93.70
57552;DHT22;43379;48.160;14.036;2022-07-29T06:37:05;23.60;93.70
57552;DHT22;43379;48.160;14.036;2022-07-29T06:39:31;23.60;93.40
57552;DHT22;43379;48.160;14.036;2022-07-29T06:41:56;23.60;92.50
57552;DHT22;43379;48.160;14.036;2022-07-29T06:44:22;23.60;92.80
57552;DHT22;43379;48.160;14.036;2022-07-29T06:46:48;23.50;93.00
57552;DHT22;43379;48.160;14.036;2022-07-29T06:49:15;23.50;92.60
57552;DHT22;43379;48.160;14.036;2022-07-29T06:51:42;23.50;92.70
57552;DHT22;43379;48.160;14.036;2022-07-29T06:54:07;23.40;92.60
57552;DHT22;43379;48.160;14.036;2022-07-29T06:56:34;23.30;92.80
57552;DHT22;43379;48.160;14.036;2022-07-29T06:59:04;23.30;93.20
57552;DHT22;43379;48.160;14.036;2022-07-29T07:01:30;23.20;93.50
57552;DHT22;43379;48.160;14.036;2022-07-29T07:03:55;23.20;93.40
57552;DHT22;43379;48.160;14.036;2022-07-29T07:06:21;23.30;93.50
57552;DHT22;43379;48.160;14.036;2022-07-29T07:08:47;23.30;93.50
57552;DHT22;43379;48.160;14.036;2022-07-29T07:11:13;23.30;92.90
57552;DHT22;43379;48.160;14.036;2022-07-29T07:13:38;23.30;93.50
57552;DHT22;43379;48.160;14.036;2022-07-29T07:16:04;23.30;93.40
57552;DHT22;43379;48.160;14.036;2022-07-29T07:18:30;23.30;93.40
57552;DHT22;43379;48.160;14.036;2022-07-29T07:20:56;23.20;93.50
57552;DHT22;43379;48.160;14.036;2022-07-29T07:23:22;23.30;93.50
57552;DHT22;43379;48.160;14.036;2022-07-29T07:25:48;23.30;93.60
57552;DHT22;43379;48.160;14.036;2022-07-29T07:28:13;23.30;93.70
57552;DHT22;43379;48.160;14.036;2022-07-29T07:30:39;23.30;93.70
57552;DHT22;43379;48.160;14.036;2022-07-29T07:33:05;23.30;93.50
57552;DHT22;43379;48.160;14.036;2022-07-29T07:35:31;23.30;93.60
57552;DHT22;43379;48.160;14.036;2022-07-29T07:37:57;23.40;93.40
57552;DHT22;43379;48.160;14.036;2022-07-29T07:40:23;23.40;93.40
57552;DHT22;43379;48.160;14.036;2022-07-29T07:42:49;23.40;93.20
57552;DHT22;43379;48.160;14.036;2022-07-29T07:45:15;23.40;92.90
57552;DHT22;43379;48.160;14.036;2022-07-29T07:47:41;23.30;92.70
57552;DHT22;43379;48.160;14.036;2022-07-29T07:50:09;23.30;92.90
57552;DHT22;43379;48.160;14.036;2022-07-29T07:52:48;23.30;93.10
57552;DHT22;43379;48.160;14.036;2022-07-29T07:55:15;23.30;93.10
57552;DHT22;43379;48.160;14.036;2022-07-29T07:57:41;23.40;93.30
57552;DHT22;43379;48.160;14.036;2022-07-29T08:00:07;23.40;93.10
57552;DHT22;43379;48.160;14.036;2022-07-29T08:02:33;23.40;93.00
57552;DHT22;43379;48.160;14.036;2022-07-29T08:04:58;23.40;93.00
57552;DHT22;43379;48.160;14.036;2022-07-29T08:07:25;23.40;93.20
57552;DHT22;43379;48.160;14.036;2022-07-29T08:09:50;23.40;93.30
57552;DHT22;43379;48.160;14.036;2022-07-29T08:12:16;23.50;93.30
57552;DHT22;43379;48.160;14.036;2022-07-29T08:14:42;23.50;93.20
57552;DHT22;43379;48.160;14.036;2022-07-29T08:17:07;23.50;92.80
57552;DHT22;43379;48.160;14.036;2022-07-29T08:19:33;23.50;93.00
57552;DHT22;43379;48.160;14.036;2022-07-29T08:21:59;23.60;93.20
57552;DHT22;43379;48.160;14.036;2022-07-29T08:24:25;23.70;93.20
57552;DHT22;43379;48.160;14.036;2022-07-29T08:27:12;23.70;93.10
57552;DHT22;43379;48.160;14.036;2022-07-29T08:29:38;23.70;93.60
57552;DHT22;43379;48.160;14.036;2022-07-29T08:32:05;23.70;92.90
57552;DHT22;43379;48.160;14.036;2022-07-29T08:34:31;23.70;92.70
57552;DHT22;43379;48.160;14.036;2022-07-29T08:36:57;23.70;92.50
57552;DHT22;43379;48.160;14.036;2022-07-29T08:39:24;23.70;91.90
57552;DHT22;43379;48.160;14.036;2022-07-29T08:41:50;23.70;91.30
57552;DHT22;43379;48.160;14.036;2022-07-29T08:44:19;23.70;90.60
57552;DHT22;43379;48.160;14.036;2022-07-29T08:46:47;23.70;90.50
57552;DHT22;43379;48.160;14.036;2022-07-29T08:49:13;23.80;90.90
57552;DHT22;43379;48.160;14.036;2022-07-29T08:51:40;23.80;90.80
57552;DHT22;43379;48.160;14.036;2022-07-29T08:54:06;23.80;91.00
57552;DHT22;43379;48.160;14.036;2022-07-29T08:56:34;24.00;91.10
57552;DHT22;43379;48.160;14.036;2022-07-29T08:59:03;24.00;91.10
57552;DHT22;43379;48.160;14.036;2022-07-29T09:01:32;24.10;90.50
57552;DHT22;43379;48.160;14.036;2022-07-29T09:03:59;24.00;90.10
57552;DHT22;43379;48.160;14.036;2022-07-29T09:06:32;24.00;90.00
57552;DHT22;43379;48.160;14.036;2022-07-29T09:09:00;24.10;90.30
57552;DHT22;43379;48.160;14.036;2022-07-29T09:11:26;24.20;90.20
57552;DHT22;43379;48.160;14.036;2022-07-29T09:13:52;24.20;88.70
57552;DHT22;43379;48.160;14.036;2022-07-29T09:16:18;24.20;88.60
57552;DHT22;43379;48.160;14.036;2022-07-29T09:18:45;24.20;89.10
57552;DHT22;43379;48.160;14.036;2022-07-29T09:21:16;24.30;89.90
57552;DHT22;43379;48.160;14.036;2022-07-29T09:24:10;24.40;89.00
57552;DHT22;43379;48.160;14.036;2022-07-29T09:26:41;24.40;89.30
57552;DHT22;43379;48.160;14.036;2022-07-29T09:29:18;24.40;90.00
57552;DHT22;43379;48.160;14.036;2022-07-29T09:31:47;24.50;89.70
57552;DHT22;43379;48.160;14.036;2022-07-29T09:34:27;24.60;90.20
57552;DHT22;43379;48.160;14.036;2022-07-29T09:36:54;24.90;90.10
57552;DHT22;43379;48.160;14.036;2022-07-29T09:39:32;25.00;89.90
57552;DHT22;43379;48.160;14.036;2022-07-29T09:41:59;25.20;89.60
57552;DHT22;43379;48.160;14.036;2022-07-29T09:44:26;25.40;89.30
57552;DHT22;43379;48.160;14.036;2022-07-29T09:49:20;25.70;88.80
57552;DHT22;43379;48.160;14.036;2022-07-29T09:51:46;25.80;87.40
57552;DHT22;43379;48.160;14.036;2022-07-29T09:54:25;25.80;86.90
57552;DHT22;43379;48.160;14.036;2022-07-29T09:56:52;25.90;87.90
57552;DHT22;43379;48.160;14.036;2022-07-29T09:59:18;26.00;87.20
57552;DHT22;43379;48.160;14.036;2022-07-29T10:01:46;26.60;87.60
57552;DHT22;43379;48.160;14.036;2022-07-29T10:04:11;27.00;87.10
57552;DHT22;43379;48.160;14.036;2022-07-29T10:06:56;27.30;84.40
57552;DHT22;43379;48.160;14.036;2022-07-29T10:09:23;27.70;84.50
57552;DHT22;43379;48.160;14.036;2022-07-29T10:12:08;27.90;82.60
57552;DHT22;43379;48.160;14.036;2022-07-29T10:14:35;28.20;84.30
57552;DHT22;43379;48.160;14.036;2022-07-29T10:17:02;28.40;82.90
57552;DHT22;43379;48.160;14.036;2022-07-29T10:19:29;28.50;80.70
57552;DHT22;43379;48.160;14.036;2022-07-29T10:22:00;28.60;79.20
57552;DHT22;43379;48.160;14.036;2022-07-29T10:24:29;28.70;80.00
57552;DHT22;43379;48.160;14.036;2022-07-29T10:26:56;28.90;79.80
57552;DHT22;43379;48.160;14.036;2022-07-29T10:29:23;29.00;80.10
57552;DHT22;43379;48.160;14.036;2022-07-29T10:32:02;29.20;79.70
57552;DHT22;43379;48.160;14.036;2022-07-29T10:34:57;29.30;77.90
57552;DHT22;43379;48.160;14.036;2022-07-29T10:37:37;29.30;76.20
57552;DHT22;43379;48.160;14.036;2022-07-29T10:43:26;29.40;75.50
57552;DHT22;43379;48.160;14.036;2022-07-29T10:45:56;29.50;75.70
57552;DHT22;43379;48.160;14.036;2022-07-29T10:48:23;29.50;74.10
57552;DHT22;43379;48.160;14.036;2022-07-29T10:50:57;29.50;73.00
57552;DHT22;43379;48.160;14.036;2022-07-29T10:53:24;29.50;75.10
57552;DHT22;43379;48.160;14.036;2022-07-29T10:56:27;29.50;73.90
57552;DHT22;43379;48.160;14.036;2022-07-29T11:01:44;29.50;72.60
57552;DHT22;43379;48.160;14.036;2022-07-29T11:04:09;29.50;70.90
57552;DHT22;43379;48.160;14.036;2022-07-29T11:09:26;28.90;71.50
57552;DHT22;43379;48.160;14.036;2022-07-29T11:11:52;28.90;73.20
57552;DHT22;43379;48.160;14.036;2022-07-29T11:17:19;29.30;73.40
57552;DHT22;43379;48.160;14.036;2022-07-29T11:19:44;29.30;73.40
57552;DHT22;43379;48.160;14.036;2022-07-29T11:22:11;29.40;72.20
57552;DHT22;43379;48.160;14.036;2022-07-29T11:25:17;29.50;73.40
57552;DHT22;43379;48.160;14.036;2022-07-29T11:27:46;29.60;69.50
57552;DHT22;43379;48.160;14.036;2022-07-29T11:30:13;29.60;72.50
57552;DHT22;43379;48.160;14.036;2022-07-29T11:32:41;29.70;72.40
57552;DHT22;43379;48.160;14.036;2022-07-29T11:35:23;29.70;73.20
57552;DHT22;43379;48.160;14.036;2022-07-29T11:41:21;29.70;71.70
57552;DHT22;43379;48.160;14.036;2022-07-29T11:46:48;29.50;71.80
57552;DHT22;43379;48.160;14.036;2022-07-29T11:49:24;29.70;72.70
57552;DHT22;43379;48.160;14.036;2022-07-29T11:51:55;29.90;72.50
57552;DHT22;43379;48.160;14.036;2022-07-29T11:54:26;30.10;72.50
57552;DHT22;43379;48.160;14.036;2022-07-29T11:56:52;30.20;71.60
57552;DHT22;43379;48.160;14.036;2022-07-29T11:59:19;30.30;70.60
57552;DHT22;43379;48.160;14.036;2022-07-29T12:01:55;30.30;70.40
57552;DHT22;43379;48.160;14.036;2022-07-29T12:04:21;30.30;68.40
57552;DHT22;43379;48.160;14.036;2022-07-29T12:06:54;30.10;68.30
57552;DHT22;43379;48.160;14.036;2022-07-29T12:09:22;29.90;68.40
57552;DHT22;43379;48.160;14.036;2022-07-29T12:11:47;29.70;69.50
57552;DHT22;43379;48.160;14.036;2022-07-29T12:14:29;29.60;69.70
57552;DHT22;43379;48.160;14.036;2022-07-29T12:16:57;29.50;68.70
57552;DHT22;43379;48.160;14.036;2022-07-29T12:19:23;29.40;69.40
57552;DHT22;43379;48.160;14.036;2022-07-29T12:21:53;29.20;68.90
57552;DHT22;43379;48.160;14.036;2022-07-29T12:24:20;29.10;69.40
57552;DHT22;43379;48.160;14.036;2022-07-29T12:26:56;29.00;70.20
57552;DHT22;43379;48.160;14.036;2022-07-29T12:29:22;29.00;69.60
57552;DHT22;43379;48.160;14.036;2022-07-29T12:31:52;28.70;69.90
57552;DHT22;43379;48.160;14.036;2022-07-29T12:34:21;28.60;69.40
57552;DHT22;43379;48.160;14.036;2022-07-29T12:36:48;28.50;70.40
57552;DHT22;43379;48.160;14.036;2022-07-29T12:39:16;28.40;70.30
57552;DHT22;43379;48.160;14.036;2022-07-29T12:41:43;28.20;70.60
57552;DHT22;43379;48.160;14.036;2022-07-29T12:44:09;28.20;70.60
57552;DHT22;43379;48.160;14.036;2022-07-29T12:46:35;28.10;71.30
57552;DHT22;43379;48.160;14.036;2022-07-29T12:49:01;28.00;71.00
57552;DHT22;43379;48.160;14.036;2022-07-29T12:54:05;28.00;72.00
57552;DHT22;43379;48.160;14.036;2022-07-29T12:56:31;28.00;72.50
57552;DHT22;43379;48.160;14.036;2022-07-29T12:58:57;28.10;73.80
57552;DHT22;43379;48.160;14.036;2022-07-29T13:01:23;28.10;71.50
57552;DHT22;43379;48.160;14.036;2022-07-29T13:03:53;28.20;72.30
57552;DHT22;43379;48.160;14.036;2022-07-29T13:09:04;28.10;71.20
57552;DHT22;43379;48.160;14.036;2022-07-29T13:11:38;28.20;70.70
57552;DHT22;43379;48.160;14.036;2022-07-29T13:14:07;28.30;72.50
57552;DHT22;43379;48.160;14.036;2022-07-29T13:16:34;28.40;71.80
57552;DHT22;43379;48.160;14.036;2022-07-29T13:19:10;28.50;72.10
57552;DHT22;43379;48.160;14.036;2022-07-29T13:21:37;28.60;71.20
57552;DHT22;43379;48.160;14.036;2022-07-29T13:24:07;28.60;71.90
57552;DHT22;43379;48.160;14.036;2022-07-29T13:26:33;28.80;73.30
57552;DHT22;43379;48.160;14.036;2022-07-29T13:28:59;28.90;72.80
57552;DHT22;43379;48.160;14.036;2022-07-29T13:31:25;29.10;72.20
57552;DHT22;43379;48.160;14.036;2022-07-29T13:33:51;29.00;71.50
57552;DHT22;43379;48.160;14.036;2022-07-29T13:36:17;28.80;70.50
57552;DHT22;43379;48.160;14.036;2022-07-29T13:38:43;28.80;71.80
57552;DHT22;43379;48.160;14.036;2022-07-29T13:41:09;28.70;70.00
57552;DHT22;43379;48.160;14.036;2022-07-29T13:43:35;28.70;69.90
57552;DHT22;43379;48.160;14.036;2022-07-29T13:46:00;28.70;71.20
57552;DHT22;43379;48.160;14.036;2022-07-29T13:48:26;28.80;71.40
57552;DHT22;43379;48.160;14.036;2022-07-29T13:50:52;28.80;69.40
57552;DHT22;43379;48.160;14.036;2022-07-29T13:53:18;29.00;68.60
57552;DHT22;43379;48.160;14.036;2022-07-29T13:55:44;28.90;67.70
57552;DHT22;43379;48.160;14.036;2022-07-29T13:58:09;28.60;67.80
57552;DHT22;43379;48.160;14.036;2022-07-29T14:00:35;28.60;69.00
57552;DHT22;43379;48.160;14.036;2022-07-29T14:03:01;28.70;70.00
57552;DHT22;43379;48.160;14.036;2022-07-29T14:05:26;28.70;69.40
57552;DHT22;43379;48.160;14.036;2022-07-29T14:07:52;28.70;68.60
57552;DHT22;43379;48.160;14.036;2022-07-29T14:10:18;28.70;69.50
57552;DHT22;43379;48.160;14.036;2022-07-29T14:12:43;28.80;68.20
57552;DHT22;43379;48.160;14.036;2022-07-29T14:15:09;28.80;70.00
57552;DHT22;43379;48.160;14.036;2022-07-29T14:17:35;28.90;69.10
57552;DHT22;43379;48.160;14.036;2022-07-29T14:20:00;28.80;69.60
57552;DHT22;43379;48.160;14.036;2022-07-29T14:22:26;28.90;68.60
57552;DHT22;43379;48.160;14.036;2022-07-29T14:24:52;29.00;68.70
57552;DHT22;43379;48.160;14.036;2022-07-29T14:27:18;28.90;68.00
57552;DHT22;43379;48.160;14.036;2022-07-29T14:29:43;28.90;70.20
57552;DHT22;43379;48.160;14.036;2022-07-29T14:32:09;29.00;67.30
57552;DHT22;43379;48.160;14.036;2022-07-29T14:34:36;29.00;67.40
57552;DHT22;43379;48.160;14.036;2022-07-29T14:37:03;29.10;69.60
57552;DHT22;43379;48.160;14.036;2022-07-29T14:39:31;29.10;68.70
57552;DHT22;43379;48.160;14.036;2022-07-29T14:41:56;29.20;67.50
57552;DHT22;43379;48.160;14.036;2022-07-29T14:44:22;29.20;68.70
57552;DHT22;43379;48.160;14.036;2022-07-29T14:46:48;29.20;66.60
57552;DHT22;43379;48.160;14.036;2022-07-29T14:49:14;29.10;69.00
57552;DHT22;43379;48.160;14.036;2022-07-29T14:51:40;29.10;69.80
57552;DHT22;43379;48.160;14.036;2022-07-29T14:54:07;29.10;70.30
57552;DHT22;43379;48.160;14.036;2022-07-29T14:56:32;29.10;70.50
57552;DHT22;43379;48.160;14.036;2022-07-29T14:58:58;29.10;69.20
57552;DHT22;43379;48.160;14.036;2022-07-29T15:01:24;29.00;69.20
57552;DHT22;43379;48.160;14.036;2022-07-29T15:03:51;29.00;68.90
57552;DHT22;43379;48.160;14.036;2022-07-29T15:06:16;28.90;68.80
57552;DHT22;43379;48.160;14.036;2022-07-29T15:08:42;28.90;69.00
57552;DHT22;43379;48.160;14.036;2022-07-29T15:11:08;28.90;68.90
57552;DHT22;43379;48.160;14.036;2022-07-29T15:13:34;28.90;68.70
57552;DHT22;43379;48.160;14.036;2022-07-29T15:16:00;29.00;68.90
57552;DHT22;43379;48.160;14.036;2022-07-29T15:18:25;28.90;68.70
57552;DHT22;43379;48.160;14.036;2022-07-29T15:20:51;29.00;69.00
57552;DHT22;43379;48.160;14.036;2022-07-29T15:23:17;29.10;69.30
57552;DHT22;43379;48.160;14.036;2022-07-29T15:25:42;29.30;69.20
57552;DHT22;43379;48.160;14.036;2022-07-29T15:28:08;29.20;67.90
57552;DHT22;43379;48.160;14.036;2022-07-29T15:30:35;29.10;68.30
57552;DHT22;43379;48.160;14.036;2022-07-29T15:33:07;29.10;70.00
57552;DHT22;43379;48.160;14.036;2022-07-29T15:35:33;29.10;68.30
57552;DHT22;43379;48.160;14.036;2022-07-29T15:37:59;29.00;68.30
57552;DHT22;43379;48.160;14.036;2022-07-29T15:40:25;29.00;67.90
57552;DHT22;43379;48.160;14.036;2022-07-29T15:42:50;29.00;68.40
57552;DHT22;43379;48.160;14.036;2022-07-29T15:45:16;28.90;67.80
57552;DHT22;43379;48.160;14.036;2022-07-29T15:47:42;28.90;68.00
57552;DHT22;43379;48.160;14.036;2022-07-29T15:50:08;28.80;68.70
57552;DHT22;43379;48.160;14.036;2022-07-29T15:52:38;28.80;67.50
57552;DHT22;43379;48.160;14.036;2022-07-29T15:55:04;28.80;66.60
57552;DHT22;43379;48.160;14.036;2022-07-29T15:57:30;28.90;67.60
57552;DHT22;43379;48.160;14.036;2022-07-29T15:59:56;28.80;66.00